sensor_id;sensor_type;location;lat;lon;timestamp;P1;durP1;ratioP1;P2;durP2;ratioP2
38693;SDS011;24447;43.460;25.744;2023-05-29T00:00:21;22.38;;;7.88;;
38693;SDS011;24447;43.460;25.744;2023-05-29T00:02:48;23.00;;;8.13;;
38693;SDS011;24447;43.460;25.744;2023-05-29T00:05:15;22.40;;;8.38;;
38693;SDS011;24447;43.460;25.744;2023-05-29T00:07:42;21.35;;;7.40;;
38693;SDS011;24447;43.460;25.744;2023-05-29T00:10:08;25.55;;;9.07;;
38693;SDS011;24447;43.460;25.744;2023-05-29T00:12:36;20.38;;;7.88;;
38693;SDS011;24447;43.460;25.744;2023-05-29T00:15:03;22.70;;;8.32;;
38693;SDS011;24447;43.460;25.744;2023-05-29T00:17:29;18.95;;;8.20;;
38693;SDS011;24447;43.460;25.744;2023-05-29T00:19:59;24.20;;;8.35;;
38693;SDS011;24447;43.460;25.744;2023-05-29T00:22:26;18.92;;;8.10;;
38693;SDS011;24447;43.460;25.744;2023-05-29T00:24:53;21.27;;;8.05;;
38693;SDS011;24447;43.460;25.744;2023-05-29T00:27:19;21.98;;;8.10;;
38693;SDS011;24447;43.460;25.744;2023-05-29T00:29:45;16.00;;;7.57;;
38693;SDS011;24447;43.460;25.744;2023-05-29T00:32:11;21.73;;;7.75;;
38693;SDS011;24447;43.460;25.744;2023-05-29T00:34:37;20.08;;;7.78;;
38693;SDS011;24447;43.460;25.744;2023-05-29T00:37:03;18.50;;;8.00;;
38693;SDS011;24447;43.460;25.744;2023-05-29T00:39:29;18.08;;;7.13;;
38693;SDS011;24447;43.460;25.744;2023-05-29T00:41:55;16.45;;;6.60;;
38693;SDS011;24447;43.460;25.744;2023-05-29T00:44:22;20.17;;;7.78;;
38693;SDS011;24447;43.460;25.744;2023-05-29T00:46:48;19.08;;;7.30;;
38693;SDS011;24447;43.460;25.744;2023-05-29T00:49:16;18.63;;;7.32;;
38693;SDS011;24447;43.460;25.744;2023-05-29T00:51:42;19.35;;;7.80;;
38693;SDS011;24447;43.460;25.744;2023-05-29T00:54:11;18.52;;;7.78;;
38693;SDS011;24447;43.460;25.744;2023-05-29T00:56:41;19.92;;;8.50;;
38693;SDS011;24447;43.460;25.744;2023-05-29T00:59:11;22.17;;;7.63;;
38693;SDS011;24447;43.460;25.744;2023-05-29T01:01:37;20.00;;;7.50;;
38693;SDS011;24447;43.460;25.744;2023-05-29T01:04:05;17.60;;;8.00;;
38693;SDS011;24447;43.460;25.744;2023-05-29T01:06:32;18.35;;;6.95;;
38693;SDS011;24447;43.460;25.744;2023-05-29T01:08:58;17.67;;;7.93;;
38693;SDS011;24447;43.460;25.744;2023-05-29T01:11:29;17.85;;;7.53;;
38693;SDS011;24447;43.460;25.744;2023-05-29T01:13:58;18.00;;;6.78;;
38693;SDS011;24447;43.460;25.744;2023-05-29T01:16:27;20.60;;;7.72;;
38693;SDS011;24447;43.460;25.744;2023-05-29T01:21:59;26.33;;;8.00;;
38693;SDS011;24447;43.460;25.744;2023-05-29T01:27:17;23.42;;;6.90;;
38693;SDS011;24447;43.460;25.744;2023-05-29T01:29:43;18.65;;;7.57;;
38693;SDS011;24447;43.460;25.744;2023-05-29T01:32:09;18.05;;;7.97;;
38693;SDS011;24447;43.460;25.744;2023-05-29T01:34:36;18.98;;;7.97;;
38693;SDS011;24447;43.460;25.744;2023-05-29T01:37:02;21.70;;;8.43;;
38693;SDS011;24447;43.460;25.744;2023-05-29T01:39:29;21.08;;;8.85;;
38693;SDS011;24447;43.460;25.744;2023-05-29T01:41:55;23.45;;;8.10;;
38693;SDS011;24447;43.460;25.744;2023-05-29T01:44:21;21.42;;;8.88;;
38693;SDS011;24447;43.460;25.744;2023-05-29T01:46:48;21.20;;;8.20;;
38693;SDS011;24447;43.460;25.744;2023-05-29T01:49:15;19.67;;;7.82;;
38693;SDS011;24447;43.460;25.744;2023-05-29T01:51:41;19.75;;;7.57;;
38693;SDS011;24447;43.460;25.744;2023-05-29T01:54:07;19.08;;;7.78;;
38693;SDS011;24447;43.460;25.744;2023-05-29T01:56:33;18.08;;;7.20;;
38693;SDS011;24447;43.460;25.744;2023-05-29T01:59:00;17.65;;;7.55;;
38693;SDS011;24447;43.460;25.744;2023-05-29T02:01:28;15.82;;;6.80;;
38693;SDS011;24447;43.460;25.744;2023-05-29T02:03:53;19.42;;;7.40;;
38693;SDS011;24447;43.460;25.744;2023-05-29T02:06:20;20.67;;;7.75;;
38693;SDS011;24447;43.460;25.744;2023-05-29T02:08:46;17.67;;;7.25;;
38693;SDS011;24447;43.460;25.744;2023-05-29T02:11:12;19.60;;;7.93;;
38693;SDS011;24447;43.460;25.744;2023-05-29T02:13:38;25.02;;;9.13;;
38693;SDS011;24447;43.460;25.744;2023-05-29T02:16:04;18.38;;;7.88;;
38693;SDS011;24447;43.460;25.744;2023-05-29T02:18:30;18.35;;;8.23;;
38693;SDS011;24447;43.460;25.744;2023-05-29T02:20:56;17.80;;;7.78;;
38693;SDS011;24447;43.460;25.744;2023-05-29T02:23:22;21.25;;;8.55;;
38693;SDS011;24447;43.460;25.744;2023-05-29T02:25:48;20.70;;;8.18;;
38693;SDS011;24447;43.460;25.744;2023-05-29T02:28:14;21.77;;;8.48;;
38693;SDS011;24447;43.460;25.744;2023-05-29T02:30:40;24.35;;;8.90;;
38693;SDS011;24447;43.460;25.744;2023-05-29T02:33:06;19.65;;;8.07;;
38693;SDS011;24447;43.460;25.744;2023-05-29T02:35:32;16.98;;;7.57;;
38693;SDS011;24447;43.460;25.744;2023-05-29T02:37:57;15.55;;;7.85;;
38693;SDS011;24447;43.460;25.744;2023-05-29T02:40:23;21.23;;;8.50;;
38693;SDS011;24447;43.460;25.744;2023-05-29T02:42:50;21.50;;;7.95;;
38693;SDS011;24447;43.460;25.744;2023-05-29T02:45:16;17.70;;;7.38;;
38693;SDS011;24447;43.460;25.744;2023-05-29T02:47:42;20.67;;;7.90;;
38693;SDS011;24447;43.460;25.744;2023-05-29T02:50:08;19.58;;;7.45;;
38693;SDS011;24447;43.460;25.744;2023-05-29T02:52:35;18.15;;;7.22;;
38693;SDS011;24447;43.460;25.744;2023-05-29T02:55:04;23.10;;;9.35;;
38693;SDS011;24447;43.460;25.744;2023-05-29T02:57:31;18.45;;;7.13;;
38693;SDS011;24447;43.460;25.744;2023-05-29T02:59:57;21.33;;;7.82;;
38693;SDS011;24447;43.460;25.744;2023-05-29T03:02:24;18.02;;;8.38;;
38693;SDS011;24447;43.460;25.744;2023-05-29T03:04:50;22.02;;;8.77;;
38693;SDS011;24447;43.460;25.744;2023-05-29T03:07:17;20.17;;;7.75;;
38693;SDS011;24447;43.460;25.744;2023-05-29T03:09:43;21.55;;;8.70;;
38693;SDS011;24447;43.460;25.744;2023-05-29T03:12:09;17.80;;;7.75;;
38693;SDS011;24447;43.460;25.744;2023-05-29T03:14:36;21.50;;;8.50;;
38693;SDS011;24447;43.460;25.744;2023-05-29T03:17:05;24.83;;;8.95;;
38693;SDS011;24447;43.460;25.744;2023-05-29T03:19:32;22.17;;;8.32;;
38693;SDS011;24447;43.460;25.744;2023-05-29T03:21:58;19.00;;;7.95;;
38693;SDS011;24447;43.460;25.744;2023-05-29T03:24:24;24.35;;;8.40;;
38693;SDS011;24447;43.460;25.744;2023-05-29T03:26:50;20.83;;;7.88;;
38693;SDS011;24447;43.460;25.744;2023-05-29T03:29:16;24.08;;;7.95;;
38693;SDS011;24447;43.460;25.744;2023-05-29T03:31:43;25.13;;;9.15;;
38693;SDS011;24447;43.460;25.744;2023-05-29T03:34:09;26.65;;;8.88;;
38693;SDS011;24447;43.460;25.744;2023-05-29T03:36:35;22.02;;;8.82;;
38693;SDS011;24447;43.460;25.744;2023-05-29T03:39:03;26.75;;;8.18;;
38693;SDS011;24447;43.460;25.744;2023-05-29T03:41:29;17.52;;;7.38;;
38693;SDS011;24447;43.460;25.744;2023-05-29T03:43:55;29.60;;;9.90;;
38693;SDS011;24447;43.460;25.744;2023-05-29T03:46:21;19.98;;;7.72;;
38693;SDS011;24447;43.460;25.744;2023-05-29T03:48:47;20.58;;;8.57;;
38693;SDS011;24447;43.460;25.744;2023-05-29T03:51:13;20.55;;;8.43;;
38693;SDS011;24447;43.460;25.744;2023-05-29T03:53:39;19.15;;;7.90;;
38693;SDS011;24447;43.460;25.744;2023-05-29T03:56:05;20.42;;;8.70;;
38693;SDS011;24447;43.460;25.744;2023-05-29T03:58:31;24.85;;;9.05;;
38693;SDS011;24447;43.460;25.744;2023-05-29T04:00:57;26.85;;;12.13;;
38693;SDS011;24447;43.460;25.744;2023-05-29T04:03:23;23.77;;;10.27;;
38693;SDS011;24447;43.460;25.744;2023-05-29T04:05:49;22.85;;;9.20;;
38693;SDS011;24447;43.460;25.744;2023-05-29T04:08:15;25.33;;;9.65;;
38693;SDS011;24447;43.460;25.744;2023-05-29T04:10:41;31.98;;;14.27;;
38693;SDS011;24447;43.460;25.744;2023-05-29T04:13:08;30.92;;;13.68;;
38693;SDS011;24447;43.460;25.744;2023-05-29T04:15:34;26.48;;;13.25;;
38693;SDS011;24447;43.460;25.744;2023-05-29T04:18:00;29.15;;;12.88;;
38693;SDS011;24447;43.460;25.744;2023-05-29T04:20:26;33.53;;;12.18;;
38693;SDS011;24447;43.460;25.744;2023-05-29T04:22:52;30.40;;;13.35;;
38693;SDS011;24447;43.460;25.744;2023-05-29T04:25:18;28.58;;;12.48;;
38693;SDS011;24447;43.460;25.744;2023-05-29T04:27:44;30.15;;;14.48;;
38693;SDS011;24447;43.460;25.744;2023-05-29T04:30:13;28.25;;;13.65;;
38693;SDS011;24447;43.460;25.744;2023-05-29T04:32:40;26.52;;;12.63;;
38693;SDS011;24447;43.460;25.744;2023-05-29T04:35:06;26.15;;;12.25;;
38693;SDS011;24447;43.460;25.744;2023-05-29T04:37:32;27.65;;;12.07;;
38693;SDS011;24447;43.460;25.744;2023-05-29T04:42:36;32.65;;;12.43;;
38693;SDS011;24447;43.460;25.744;2023-05-29T04:45:03;32.30;;;13.35;;
38693;SDS011;24447;43.460;25.744;2023-05-29T04:47:35;31.95;;;13.55;;
38693;SDS011;24447;43.460;25.744;2023-05-29T04:50:14;35.20;;;15.82;;
38693;SDS011;24447;43.460;25.744;2023-05-29T04:52:41;29.95;;;14.43;;
38693;SDS011;24447;43.460;25.744;2023-05-29T04:55:08;30.52;;;13.55;;
38693;SDS011;24447;43.460;25.744;2023-05-29T04:57:35;29.08;;;13.05;;
38693;SDS011;24447;43.460;25.744;2023-05-29T05:00:02;28.92;;;13.07;;
38693;SDS011;24447;43.460;25.744;2023-05-29T05:02:33;27.75;;;13.30;;
38693;SDS011;24447;43.460;25.744;2023-05-29T05:04:59;26.95;;;12.30;;
38693;SDS011;24447;43.460;25.744;2023-05-29T05:07:25;27.88;;;12.07;;
38693;SDS011;24447;43.460;25.744;2023-05-29T05:09:51;26.17;;;11.45;;
38693;SDS011;24447;43.460;25.744;2023-05-29T05:12:17;23.27;;;11.07;;
38693;SDS011;24447;43.460;25.744;2023-05-29T05:14:42;23.27;;;11.85;;
38693;SDS011;24447;43.460;25.744;2023-05-29T05:17:08;25.52;;;11.57;;
38693;SDS011;24447;43.460;25.744;2023-05-29T05:19:34;25.92;;;10.25;;
38693;SDS011;24447;43.460;25.744;2023-05-29T05:22:00;23.63;;;10.05;;
38693;SDS011;24447;43.460;25.744;2023-05-29T05:24:26;20.20;;;8.80;;
38693;SDS011;24447;43.460;25.744;2023-05-29T05:26:52;22.35;;;9.90;;
38693;SDS011;24447;43.460;25.744;2023-05-29T05:29:18;23.10;;;10.57;;
38693;SDS011;24447;43.460;25.744;2023-05-29T05:31:44;24.08;;;11.02;;
38693;SDS011;24447;43.460;25.744;2023-05-29T05:34:10;27.45;;;11.27;;
38693;SDS011;24447;43.460;25.744;2023-05-29T05:36:36;23.55;;;10.55;;
38693;SDS011;24447;43.460;25.744;2023-05-29T05:39:02;25.50;;;10.00;;
38693;SDS011;24447;43.460;25.744;2023-05-29T05:41:28;19.40;;;9.13;;
38693;SDS011;24447;43.460;25.744;2023-05-29T05:43:54;21.25;;;10.07;;
38693;SDS011;24447;43.460;25.744;2023-05-29T05:46:20;28.63;;;10.23;;
38693;SDS011;24447;43.460;25.744;2023-05-29T05:48:46;22.20;;;10.45;;
38693;SDS011;24447;43.460;25.744;2023-05-29T05:51:11;23.05;;;10.55;;
38693;SDS011;24447;43.460;25.744;2023-05-29T05:53:38;24.45;;;12.00;;
38693;SDS011;24447;43.460;25.744;2023-05-29T05:56:05;33.33;;;16.20;;
38693;SDS011;24447;43.460;25.744;2023-05-29T05:58:31;29.02;;;14.40;;
38693;SDS011;24447;43.460;25.744;2023-05-29T06:00:56;25.98;;;11.48;;
38693;SDS011;24447;43.460;25.744;2023-05-29T06:03:23;30.05;;;12.55;;
38693;SDS011;24447;43.460;25.744;2023-05-29T06:05:49;28.88;;;12.23;;
38693;SDS011;24447;43.460;25.744;2023-05-29T06:08:17;25.02;;;10.52;;
38693;SDS011;24447;43.460;25.744;2023-05-29T06:10:43;27.15;;;11.30;;
38693;SDS011;24447;43.460;25.744;2023-05-29T06:13:08;23.55;;;10.98;;
38693;SDS011;24447;43.460;25.744;2023-05-29T06:15:34;20.83;;;10.38;;
38693;SDS011;24447;43.460;25.744;2023-05-29T06:18:00;34.50;;;10.50;;
38693;SDS011;24447;43.460;25.744;2023-05-29T06:20:27;22.73;;;9.70;;
38693;SDS011;24447;43.460;25.744;2023-05-29T06:22:53;24.90;;;11.18;;
38693;SDS011;24447;43.460;25.744;2023-05-29T06:25:19;31.88;;;10.32;;
38693;SDS011;24447;43.460;25.744;2023-05-29T06:27:45;24.88;;;10.23;;
38693;SDS011;24447;43.460;25.744;2023-05-29T06:30:11;30.55;;;9.90;;
38693;SDS011;24447;43.460;25.744;2023-05-29T06:32:38;22.98;;;10.13;;
38693;SDS011;24447;43.460;25.744;2023-05-29T06:35:04;22.25;;;10.48;;
38693;SDS011;24447;43.460;25.744;2023-05-29T06:37:31;19.60;;;8.88;;
38693;SDS011;24447;43.460;25.744;2023-05-29T06:39:57;21.10;;;9.93;;
38693;SDS011;24447;43.460;25.744;2023-05-29T06:42:23;25.08;;;9.82;;
38693;SDS011;24447;43.460;25.744;2023-05-29T06:44:49;24.27;;;10.73;;
38693;SDS011;24447;43.460;25.744;2023-05-29T06:47:15;23.40;;;10.30;;
38693;SDS011;24447;43.460;25.744;2023-05-29T06:49:41;23.50;;;9.93;;
38693;SDS011;24447;43.460;25.744;2023-05-29T06:52:07;24.15;;;10.55;;
38693;SDS011;24447;43.460;25.744;2023-05-29T06:54:33;21.42;;;9.95;;
38693;SDS011;24447;43.460;25.744;2023-05-29T06:56:59;23.77;;;10.52;;
38693;SDS011;24447;43.460;25.744;2023-05-29T06:59:25;24.27;;;10.25;;
38693;SDS011;24447;43.460;25.744;2023-05-29T07:01:51;23.58;;;10.55;;
38693;SDS011;24447;43.460;25.744;2023-05-29T07:04:16;21.13;;;9.85;;
38693;SDS011;24447;43.460;25.744;2023-05-29T07:06:42;26.20;;;10.98;;
38693;SDS011;24447;43.460;25.744;2023-05-29T07:09:08;20.33;;;9.55;;
38693;SDS011;24447;43.460;25.744;2023-05-29T07:11:34;20.23;;;10.90;;
38693;SDS011;24447;43.460;25.744;2023-05-29T07:14:00;25.65;;;10.15;;
38693;SDS011;24447;43.460;25.744;2023-05-29T07:16:26;22.23;;;10.55;;
38693;SDS011;24447;43.460;25.744;2023-05-29T07:18:52;26.08;;;10.23;;
38693;SDS011;24447;43.460;25.744;2023-05-29T07:21:17;20.30;;;8.18;;
38693;SDS011;24447;43.460;25.744;2023-05-29T07:23:45;20.65;;;8.48;;
38693;SDS011;24447;43.460;25.744;2023-05-29T07:26:11;20.50;;;8.85;;
38693;SDS011;24447;43.460;25.744;2023-05-29T07:28:37;18.73;;;8.40;;
38693;SDS011;24447;43.460;25.744;2023-05-29T07:31:03;18.38;;;9.10;;
38693;SDS011;24447;43.460;25.744;2023-05-29T07:33:28;23.52;;;9.88;;
38693;SDS011;24447;43.460;25.744;2023-05-29T07:35:54;20.20;;;8.75;;
38693;SDS011;24447;43.460;25.744;2023-05-29T07:38:20;16.05;;;7.53;;
38693;SDS011;24447;43.460;25.744;2023-05-29T07:40:46;19.67;;;7.45;;
38693;SDS011;24447;43.460;25.744;2023-05-29T07:43:12;17.35;;;7.35;;
38693;SDS011;24447;43.460;25.744;2023-05-29T07:45:38;32.03;;;9.00;;
38693;SDS011;24447;43.460;25.744;2023-05-29T07:48:04;12.70;;;6.20;;
38693;SDS011;24447;43.460;25.744;2023-05-29T07:50:30;14.25;;;6.88;;
38693;SDS011;24447;43.460;25.744;2023-05-29T07:52:56;15.77;;;7.03;;
38693;SDS011;24447;43.460;25.744;2023-05-29T07:55:22;15.88;;;6.28;;
38693;SDS011;24447;43.460;25.744;2023-05-29T07:57:48;16.75;;;6.55;;
38693;SDS011;24447;43.460;25.744;2023-05-29T08:00:14;14.73;;;6.90;;
38693;SDS011;24447;43.460;25.744;2023-05-29T08:02:40;15.52;;;6.63;;
38693;SDS011;24447;43.460;25.744;2023-05-29T08:05:07;15.35;;;7.05;;
38693;SDS011;24447;43.460;25.744;2023-05-29T08:07:34;13.23;;;6.57;;
38693;SDS011;24447;43.460;25.744;2023-05-29T08:10:00;18.13;;;7.47;;
38693;SDS011;24447;43.460;25.744;2023-05-29T08:12:26;12.98;;;6.68;;
38693;SDS011;24447;43.460;25.744;2023-05-29T08:14:52;15.32;;;6.53;;
38693;SDS011;24447;43.460;25.744;2023-05-29T08:17:18;16.38;;;7.15;;
38693;SDS011;24447;43.460;25.744;2023-05-29T08:19:44;19.45;;;7.88;;
38693;SDS011;24447;43.460;25.744;2023-05-29T08:22:12;17.17;;;7.10;;
38693;SDS011;24447;43.460;25.744;2023-05-29T08:24:38;16.95;;;6.65;;
38693;SDS011;24447;43.460;25.744;2023-05-29T08:27:04;22.40;;;8.32;;
38693;SDS011;24447;43.460;25.744;2023-05-29T08:29:31;18.67;;;7.95;;
38693;SDS011;24447;43.460;25.744;2023-05-29T08:31:57;14.20;;;6.85;;
38693;SDS011;24447;43.460;25.744;2023-05-29T08:34:23;13.88;;;7.43;;
38693;SDS011;24447;43.460;25.744;2023-05-29T08:36:48;25.75;;;9.70;;
38693;SDS011;24447;43.460;25.744;2023-05-29T08:39:16;27.33;;;8.75;;
38693;SDS011;24447;43.460;25.744;2023-05-29T08:42:01;17.92;;;7.70;;
38693;SDS011;24447;43.460;25.744;2023-05-29T08:44:32;17.98;;;8.57;;
38693;SDS011;24447;43.460;25.744;2023-05-29T08:47:03;16.00;;;7.70;;
38693;SDS011;24447;43.460;25.744;2023-05-29T08:49:29;21.13;;;8.23;;
38693;SDS011;24447;43.460;25.744;2023-05-29T08:52:16;15.27;;;7.03;;
38693;SDS011;24447;43.460;25.744;2023-05-29T08:54:43;14.50;;;7.88;;
38693;SDS011;24447;43.460;25.744;2023-05-29T08:57:10;16.95;;;6.93;;
38693;SDS011;24447;43.460;25.744;2023-05-29T08:59:37;16.52;;;7.97;;
38693;SDS011;24447;43.460;25.744;2023-05-29T09:02:05;17.98;;;7.25;;
38693;SDS011;24447;43.460;25.744;2023-05-29T09:04:31;14.63;;;7.63;;
38693;SDS011;24447;43.460;25.744;2023-05-29T09:06:59;18.85;;;7.30;;
38693;SDS011;24447;43.460;25.744;2023-05-29T09:09:28;16.10;;;7.65;;
38693;SDS011;24447;43.460;25.744;2023-05-29T09:11:56;15.68;;;8.02;;
38693;SDS011;24447;43.460;25.744;2023-05-29T09:14:39;16.80;;;8.18;;
38693;SDS011;24447;43.460;25.744;2023-05-29T09:17:06;16.13;;;7.85;;
38693;SDS011;24447;43.460;25.744;2023-05-29T09:19:33;20.92;;;8.32;;
38693;SDS011;24447;43.460;25.744;2023-05-29T09:22:06;16.38;;;7.97;;
38693;SDS011;24447;43.460;25.744;2023-05-29T09:24:33;16.17;;;7.80;;
38693;SDS011;24447;43.460;25.744;2023-05-29T09:27:00;19.27;;;7.82;;
38693;SDS011;24447;43.460;25.744;2023-05-29T09:29:27;17.63;;;7.85;;
38693;SDS011;24447;43.460;25.744;2023-05-29T09:31:53;18.10;;;7.80;;
38693;SDS011;24447;43.460;25.744;2023-05-29T09:34:19;16.50;;;8.10;;
38693;SDS011;24447;43.460;25.744;2023-05-29T09:36:45;18.92;;;8.73;;
38693;SDS011;24447;43.460;25.744;2023-05-29T09:39:11;22.75;;;8.55;;
38693;SDS011;24447;43.460;25.744;2023-05-29T09:41:43;20.15;;;8.63;;
38693;SDS011;24447;43.460;25.744;2023-05-29T09:44:12;15.32;;;7.70;;
38693;SDS011;24447;43.460;25.744;2023-05-29T09:46:40;20.13;;;8.48;;
38693;SDS011;24447;43.460;25.744;2023-05-29T09:49:11;22.92;;;9.15;;
38693;SDS011;24447;43.460;25.744;2023-05-29T09:51:38;19.60;;;7.93;;
38693;SDS011;24447;43.460;25.744;2023-05-29T09:54:17;19.08;;;8.68;;
38693;SDS011;24447;43.460;25.744;2023-05-29T09:56:44;17.80;;;7.32;;
38693;SDS011;24447;43.460;25.744;2023-05-29T09:59:11;20.98;;;8.05;;
38693;SDS011;24447;43.460;25.744;2023-05-29T10:01:41;16.77;;;7.55;;
38693;SDS011;24447;43.460;25.744;2023-05-29T10:04:11;19.02;;;8.00;;
38693;SDS011;24447;43.460;25.744;2023-05-29T10:06:39;15.32;;;7.15;;
38693;SDS011;24447;43.460;25.744;2023-05-29T10:09:12;22.98;;;7.57;;
38693;SDS011;24447;43.460;25.744;2023-05-29T10:11:43;20.25;;;7.93;;
38693;SDS011;24447;43.460;25.744;2023-05-29T10:14:10;14.13;;;6.70;;
38693;SDS011;24447;43.460;25.744;2023-05-29T10:16:41;28.50;;;10.93;;
38693;SDS011;24447;43.460;25.744;2023-05-29T10:19:11;23.85;;;11.60;;
38693;SDS011;24447;43.460;25.744;2023-05-29T10:21:39;13.18;;;6.57;;
38693;SDS011;24447;43.460;25.744;2023-05-29T10:24:06;12.70;;;6.60;;
38693;SDS011;24447;43.460;25.744;2023-05-29T10:26:42;14.25;;;6.25;;
38693;SDS011;24447;43.460;25.744;2023-05-29T10:34:50;14.35;;;6.80;;
38693;SDS011;24447;43.460;25.744;2023-05-29T10:39:52;12.60;;;5.45;;
38693;SDS011;24447;43.460;25.744;2023-05-29T10:50:36;11.20;;;5.00;;
38693;SDS011;24447;43.460;25.744;2023-05-29T10:53:09;10.05;;;4.43;;
38693;SDS011;24447;43.460;25.744;2023-05-29T10:55:37;10.45;;;5.30;;
38693;SDS011;24447;43.460;25.744;2023-05-29T11:00:33;12.77;;;5.50;;
38693;SDS011;24447;43.460;25.744;2023-05-29T11:03:03;17.05;;;5.40;;
38693;SDS011;24447;43.460;25.744;2023-05-29T11:05:29;12.52;;;5.45;;
38693;SDS011;24447;43.460;25.744;2023-05-29T11:07:56;9.93;;;5.25;;
38693;SDS011;24447;43.460;25.744;2023-05-29T11:10:42;10.82;;;5.55;;
38693;SDS011;24447;43.460;25.744;2023-05-29T11:13:30;14.07;;;5.85;;
38693;SDS011;24447;43.460;25.744;2023-05-29T11:16:43;14.32;;;5.90;;
38693;SDS011;24447;43.460;25.744;2023-05-29T11:18:58;14.52;;;5.82;;
38693;SDS011;24447;43.460;25.744;2023-05-29T11:21:30;14.00;;;5.97;;
38693;SDS011;24447;43.460;25.744;2023-05-29T11:23:57;12.85;;;6.30;;
38693;SDS011;24447;43.460;25.744;2023-05-29T11:26:26;13.05;;;5.82;;
38693;SDS011;24447;43.460;25.744;2023-05-29T11:28:52;12.38;;;6.45;;
38693;SDS011;24447;43.460;25.744;2023-05-29T11:31:19;12.57;;;6.03;;
38693;SDS011;24447;43.460;25.744;2023-05-29T11:33:49;19.95;;;7.05;;
38693;SDS011;24447;43.460;25.744;2023-05-29T11:36:21;21.08;;;7.38;;
38693;SDS011;24447;43.460;25.744;2023-05-29T11:38:47;16.35;;;7.25;;
38693;SDS011;24447;43.460;25.744;2023-05-29T11:41:13;20.05;;;8.65;;
38693;SDS011;24447;43.460;25.744;2023-05-29T11:43:39;22.65;;;9.73;;
38693;SDS011;24447;43.460;25.744;2023-05-29T11:46:15;21.95;;;9.77;;
38693;SDS011;24447;43.460;25.744;2023-05-29T11:48:46;25.63;;;11.43;;
38693;SDS011;24447;43.460;25.744;2023-05-29T11:51:13;22.27;;;10.02;;
38693;SDS011;24447;43.460;25.744;2023-05-29T11:53:42;22.23;;;10.95;;
38693;SDS011;24447;43.460;25.744;2023-05-29T11:56:09;24.13;;;11.60;;
38693;SDS011;24447;43.460;25.744;2023-05-29T11:58:36;25.20;;;11.85;;
38693;SDS011;24447;43.460;25.744;2023-05-29T12:01:03;23.15;;;11.23;;
38693;SDS011;24447;43.460;25.744;2023-05-29T12:03:29;28.63;;;11.75;;
38693;SDS011;24447;43.460;25.744;2023-05-29T12:05:55;23.20;;;10.02;;
38693;SDS011;24447;43.460;25.744;2023-05-29T12:08:22;14.57;;;7.32;;
38693;SDS011;24447;43.460;25.744;2023-05-29T12:10:49;14.85;;;6.90;;
38693;SDS011;24447;43.460;25.744;2023-05-29T12:13:18;16.92;;;7.45;;
38693;SDS011;24447;43.460;25.744;2023-05-29T12:15:44;13.43;;;6.55;;
38693;SDS011;24447;43.460;25.744;2023-05-29T12:18:11;13.10;;;5.72;;
38693;SDS011;24447;43.460;25.744;2023-05-29T12:20:37;13.50;;;6.80;;
38693;SDS011;24447;43.460;25.744;2023-05-29T12:23:03;13.80;;;6.50;;
38693;SDS011;24447;43.460;25.744;2023-05-29T12:25:29;13.98;;;6.38;;
38693;SDS011;24447;43.460;25.744;2023-05-29T12:27:55;14.93;;;6.80;;
38693;SDS011;24447;43.460;25.744;2023-05-29T12:30:22;16.92;;;7.43;;
38693;SDS011;24447;43.460;25.744;2023-05-29T12:32:52;13.93;;;6.63;;
38693;SDS011;24447;43.460;25.744;2023-05-29T12:35:19;11.75;;;6.18;;
38693;SDS011;24447;43.460;25.744;2023-05-29T12:40:20;13.90;;;6.75;;
38693;SDS011;24447;43.460;25.744;2023-05-29T12:42:47;14.98;;;7.53;;
38693;SDS011;24447;43.460;25.744;2023-05-29T12:45:13;14.75;;;6.32;;
38693;SDS011;24447;43.460;25.744;2023-05-29T12:48:13;15.00;;;7.00;;
38693;SDS011;24447;43.460;25.744;2023-05-29T12:50:37;13.82;;;6.78;;
38693;SDS011;24447;43.460;25.744;2023-05-29T12:53:05;11.82;;;6.72;;
38693;SDS011;24447;43.460;25.744;2023-05-29T12:55:36;16.48;;;7.25;;
38693;SDS011;24447;43.460;25.744;2023-05-29T12:58:10;16.10;;;6.95;;
38693;SDS011;24447;43.460;25.744;2023-05-29T13:00:39;14.23;;;6.90;;
38693;SDS011;24447;43.460;25.744;2023-05-29T13:03:06;14.73;;;6.28;;
38693;SDS011;24447;43.460;25.744;2023-05-29T13:05:33;12.48;;;5.80;;
38693;SDS011;24447;43.460;25.744;2023-05-29T13:07:59;12.95;;;5.80;;
38693;SDS011;24447;43.460;25.744;2023-05-29T13:10:25;13.68;;;6.63;;
38693;SDS011;24447;43.460;25.744;2023-05-29T13:12:52;12.95;;;6.05;;
38693;SDS011;24447;43.460;25.744;2023-05-29T13:15:20;12.75;;;6.07;;
38693;SDS011;24447;43.460;25.744;2023-05-29T13:17:47;14.00;;;6.18;;
38693;SDS011;24447;43.460;25.744;2023-05-29T13:20:13;13.23;;;5.60;;
38693;SDS011;24447;43.460;25.744;2023-05-29T13:22:40;11.93;;;6.05;;
38693;SDS011;24447;43.460;25.744;2023-05-29T13:25:06;10.80;;;5.90;;
38693;SDS011;24447;43.460;25.744;2023-05-29T13:27:34;15.15;;;6.10;;
38693;SDS011;24447;43.460;25.744;2023-05-29T13:30:02;13.32;;;6.13;;
38693;SDS011;24447;43.460;25.744;2023-05-29T13:32:28;15.82;;;6.90;;
38693;SDS011;24447;43.460;25.744;2023-05-29T13:34:55;12.88;;;6.53;;
38693;SDS011;24447;43.460;25.744;2023-05-29T13:37:21;11.48;;;5.43;;
38693;SDS011;24447;43.460;25.744;2023-05-29T13:39:47;13.93;;;6.38;;
38693;SDS011;24447;43.460;25.744;2023-05-29T13:42:13;15.23;;;5.35;;
38693;SDS011;24447;43.460;25.744;2023-05-29T13:44:39;12.88;;;6.28;;
38693;SDS011;24447;43.460;25.744;2023-05-29T13:47:05;13.23;;;6.03;;
38693;SDS011;24447;43.460;25.744;2023-05-29T13:49:33;14.68;;;5.68;;
38693;SDS011;24447;43.460;25.744;2023-05-29T13:51:59;11.00;;;5.18;;
38693;SDS011;24447;43.460;25.744;2023-05-29T13:54:25;13.13;;;5.55;;
38693;SDS011;24447;43.460;25.744;2023-05-29T13:56:54;11.80;;;5.38;;
38693;SDS011;24447;43.460;25.744;2023-05-29T13:59:22;10.30;;;5.00;;
38693;SDS011;24447;43.460;25.744;2023-05-29T14:01:49;12.68;;;5.22;;
38693;SDS011;24447;43.460;25.744;2023-05-29T14:04:15;11.50;;;5.72;;
38693;SDS011;24447;43.460;25.744;2023-05-29T14:06:41;13.85;;;6.10;;
38693;SDS011;24447;43.460;25.744;2023-05-29T14:09:07;14.98;;;6.47;;
38693;SDS011;24447;43.460;25.744;2023-05-29T14:11:39;14.98;;;6.70;;
38693;SDS011;24447;43.460;25.744;2023-05-29T14:14:05;15.25;;;6.10;;
38693;SDS011;24447;43.460;25.744;2023-05-29T14:16:32;13.23;;;6.80;;
38693;SDS011;24447;43.460;25.744;2023-05-29T14:18:58;14.05;;;6.35;;
38693;SDS011;24447;43.460;25.744;2023-05-29T14:21:25;19.40;;;6.30;;
38693;SDS011;24447;43.460;25.744;2023-05-29T14:23:51;12.55;;;6.25;;
38693;SDS011;24447;43.460;25.744;2023-05-29T14:26:17;16.80;;;7.35;;
38693;SDS011;24447;43.460;25.744;2023-05-29T14:28:43;15.98;;;7.85;;
38693;SDS011;24447;43.460;25.744;2023-05-29T14:31:09;17.50;;;7.35;;
38693;SDS011;24447;43.460;25.744;2023-05-29T14:33:35;14.30;;;6.93;;
38693;SDS011;24447;43.460;25.744;2023-05-29T14:36:04;14.73;;;6.85;;
38693;SDS011;24447;43.460;25.744;2023-05-29T14:38:30;11.80;;;6.43;;
38693;SDS011;24447;43.460;25.744;2023-05-29T14:40:56;14.63;;;6.20;;
38693;SDS011;24447;43.460;25.744;2023-05-29T14:43:22;17.92;;;7.32;;
38693;SDS011;24447;43.460;25.744;2023-05-29T14:45:48;16.15;;;7.22;;
38693;SDS011;24447;43.460;25.744;2023-05-29T14:48:14;13.10;;;6.72;;